sensor_id;sensor_type;location;lat;lon;timestamp;temperature;humidity
7341;DHT22;6870;50.944;6.932;2022-10-16T00:01:29;21.20;39.70
7341;DHT22;6870;50.944;6.932;2022-10-16T00:03:59;21.20;39.20
7341;DHT22;6870;50.944;6.932;2022-10-16T00:06:29;21.40;39.40
7341;DHT22;6870;50.944;6.932;2022-10-16T00:08:58;21.30;39.20
7341;DHT22;6870;50.944;6.932;2022-10-16T00:11:29;21.40;39.70
7341;DHT22;6870;50.944;6.932;2022-10-16T00:14:04;21.30;39.60
7341;DHT22;6870;50.944;6.932;2022-10-16T00:16:34;21.30;39.80
7341;DHT22;6870;50.944;6.932;2022-10-16T00:19:03;21.00;39.60
7341;DHT22;6870;50.944;6.932;2022-10-16T00:21:32;21.30;39.20
7341;DHT22;6870;50.944;6.932;2022-10-16T00:24:01;21.50;40.00
7341;DHT22;6870;50.944;6.932;2022-10-16T00:26:34;21.00;39.50
7341;DHT22;6870;50.944;6.932;2022-10-16T00:29:03;21.10;39.60
7341;DHT22;6870;50.944;6.932;2022-10-16T00:31:32;21.10;39.60
7341;DHT22;6870;50.944;6.932;2022-10-16T00:34:00;21.30;39.70
7341;DHT22;6870;50.944;6.932;2022-10-16T00:36:28;21.30;39.70
7341;DHT22;6870;50.944;6.932;2022-10-16T00:38:57;21.00;39.10
7341;DHT22;6870;50.944;6.932;2022-10-16T00:41:33;21.30;39.80
7341;DHT22;6870;50.944;6.932;2022-10-16T00:44:03;21.10;39.60
7341;DHT22;6870;50.944;6.932;2022-10-16T00:46:53;21.20;39.70
7341;DHT22;6870;50.944;6.932;2022-10-16T00:49:21;21.30;39.80
7341;DHT22;6870;50.944;6.932;2022-10-16T00:51:51;21.30;39.70
7341;DHT22;6870;50.944;6.932;2022-10-16T00:54:23;21.30;39.70
7341;DHT22;6870;50.944;6.932;2022-10-16T00:56:53;21.30;39.90
7341;DHT22;6870;50.944;6.932;2022-10-16T00:59:25;21.40;39.30
7341;DHT22;6870;50.944;6.932;2022-10-16T01:01:56;21.30;39.90
7341;DHT22;6870;50.944;6.932;2022-10-16T01:04:26;21.30;40.70
7341;DHT22;6870;50.944;6.932;2022-10-16T01:07:05;21.40;39.90
7341;DHT22;6870;50.944;6.932;2022-10-16T01:09:47;21.30;39.90
7341;DHT22;6870;50.944;6.932;2022-10-16T01:12:28;21.10;39.10
7341;DHT22;6870;50.944;6.932;2022-10-16T01:15:10;21.30;39.90
7341;DHT22;6870;50.944;6.932;2022-10-16T01:17:46;21.40;39.90
7341;DHT22;6870;50.944;6.932;2022-10-16T01:20:24;21.00;39.50
7341;DHT22;6870;50.944;6.932;2022-10-16T01:23:02;21.10;39.50
7341;DHT22;6870;50.944;6.932;2022-10-16T01:25:43;21.10;39.50
7341;DHT22;6870;50.944;6.932;2022-10-16T01:28:29;21.20;39.70
7341;DHT22;6870;50.944;6.932;2022-10-16T01:31:03;21.30;39.90
7341;DHT22;6870;50.944;6.932;2022-10-16T01:33:35;21.40;39.70
7341;DHT22;6870;50.944;6.932;2022-10-16T01:36:10;21.10;39.70
7341;DHT22;6870;50.944;6.932;2022-10-16T01:38:43;21.20;39.90
7341;DHT22;6870;50.944;6.932;2022-10-16T01:41:17;21.40;40.80
7341;DHT22;6870;50.944;6.932;2022-10-16T01:43:51;21.20;39.90
7341;DHT22;6870;50.944;6.932;2022-10-16T01:46:23;21.20;39.80
7341;DHT22;6870;50.944;6.932;2022-10-16T01:48:52;21.10;39.20
7341;DHT22;6870;50.944;6.932;2022-10-16T01:51:21;21.30;39.80
7341;DHT22;6870;50.944;6.932;2022-10-16T01:53:53;21.00;39.50
7341;DHT22;6870;50.944;6.932;2022-10-16T01:56:24;21.40;39.50
7341;DHT22;6870;50.944;6.932;2022-10-16T01:58:56;21.20;39.80
7341;DHT22;6870;50.944;6.932;2022-10-16T02:01:31;21.20;39.80
7341;DHT22;6870;50.944;6.932;2022-10-16T02:04:07;21.30;39.90
7341;DHT22;6870;50.944;6.932;2022-10-16T02:06:37;21.10;39.60
7341;DHT22;6870;50.944;6.932;2022-10-16T02:09:05;21.40;39.80
7341;DHT22;6870;50.944;6.932;2022-10-16T02:11:33;21.30;39.80
7341;DHT22;6870;50.944;6.932;2022-10-16T02:14:06;20.70;39.00
7341;DHT22;6870;50.944;6.932;2022-10-16T02:16:37;21.30;39.90
7341;DHT22;6870;50.944;6.932;2022-10-16T02:19:06;21.20;39.20
7341;DHT22;6870;50.944;6.932;2022-10-16T02:21:40;21.10;39.70
7341;DHT22;6870;50.944;6.932;2022-10-16T02:24:18;20.80;39.50
7341;DHT22;6870;50.944;6.932;2022-10-16T02:26:51;21.10;39.70
7341;DHT22;6870;50.944;6.932;2022-10-16T02:29:25;21.20;39.80
7341;DHT22;6870;50.944;6.932;2022-10-16T02:31:57;21.10;39.60
7341;DHT22;6870;50.944;6.932;2022-10-16T02:34:30;21.00;39.70
7341;DHT22;6870;50.944;6.932;2022-10-16T02:37:01;21.10;39.70
7341;DHT22;6870;50.944;6.932;2022-10-16T02:39:31;21.00;38.90
7341;DHT22;6870;50.944;6.932;2022-10-16T02:42:00;21.20;39.70
7341;DHT22;6870;50.944;6.932;2022-10-16T02:44:30;21.10;39.20
7341;DHT22;6870;50.944;6.932;2022-10-16T02:46:58;20.80;38.90
7341;DHT22;6870;50.944;6.932;2022-10-16T02:49:26;21.20;39.30
7341;DHT22;6870;50.944;6.932;2022-10-16T02:51:54;21.30;39.70
7341;DHT22;6870;50.944;6.932;2022-10-16T02:54:23;21.10;39.70
7341;DHT22;6870;50.944;6.932;2022-10-16T02:56:51;20.60;38.80
7341;DHT22;6870;50.944;6.932;2022-10-16T02:59:19;21.30;39.90
7341;DHT22;6870;50.944;6.932;2022-10-16T03:01:49;21.10;39.50
7341;DHT22;6870;50.944;6.932;2022-10-16T03:04:17;21.10;39.60
7341;DHT22;6870;50.944;6.932;2022-10-16T03:06:45;21.00;39.00
7341;DHT22;6870;50.944;6.932;2022-10-16T03:09:13;21.20;39.60
7341;DHT22;6870;50.944;6.932;2022-10-16T03:11:42;21.20;39.60
7341;DHT22;6870;50.944;6.932;2022-10-16T03:14:10;20.90;39.20
7341;DHT22;6870;50.944;6.932;2022-10-16T03:16:38;21.20;39.50
7341;DHT22;6870;50.944;6.932;2022-10-16T03:19:07;21.10;39.40
7341;DHT22;6870;50.944;6.932;2022-10-16T03:21:35;21.20;39.70
7341;DHT22;6870;50.944;6.932;2022-10-16T03:24:04;21.20;39.70
7341;DHT22;6870;50.944;6.932;2022-10-16T03:26:33;21.20;39.20
7341;DHT22;6870;50.944;6.932;2022-10-16T03:29:01;21.30;39.60
7341;DHT22;6870;50.944;6.932;2022-10-16T03:31:30;21.20;39.60
7341;DHT22;6870;50.944;6.932;2022-10-16T03:33:58;21.30;39.50
7341;DHT22;6870;50.944;6.932;2022-10-16T03:36:28;20.70;38.50
7341;DHT22;6870;50.944;6.932;2022-10-16T03:38:57;21.20;39.20
7341;DHT22;6870;50.944;6.932;2022-10-16T03:41:25;21.00;39.30
7341;DHT22;6870;50.944;6.932;2022-10-16T03:43:53;21.30;39.00
7341;DHT22;6870;50.944;6.932;2022-10-16T03:46:21;20.90;39.20
7341;DHT22;6870;50.944;6.932;2022-10-16T03:48:49;21.30;39.40
7341;DHT22;6870;50.944;6.932;2022-10-16T03:51:18;21.10;39.00
7341;DHT22;6870;50.944;6.932;2022-10-16T03:53:47;20.80;39.20
7341;DHT22;6870;50.944;6.932;2022-10-16T03:56:15;21.10;39.30
7341;DHT22;6870;50.944;6.932;2022-10-16T03:58:43;21.20;39.40
7341;DHT22;6870;50.944;6.932;2022-10-16T04:01:12;20.90;39.30
7341;DHT22;6870;50.944;6.932;2022-10-16T04:03:40;21.30;39.50
7341;DHT22;6870;50.944;6.932;2022-10-16T04:06:08;21.00;39.40
7341;DHT22;6870;50.944;6.932;2022-10-16T04:08:36;21.20;39.50
7341;DHT22;6870;50.944;6.932;2022-10-16T04:11:07;21.10;39.50
7341;DHT22;6870;50.944;6.932;2022-10-16T04:13:35;21.20;39.50
7341;DHT22;6870;50.944;6.932;2022-10-16T04:16:04;20.90;38.80
7341;DHT22;6870;50.944;6.932;2022-10-16T04:18:32;21.00;39.00
7341;DHT22;6870;50.944;6.932;2022-10-16T04:21:05;21.00;39.10
7341;DHT22;6870;50.944;6.932;2022-10-16T04:23:33;21.20;39.80
7341;DHT22;6870;50.944;6.932;2022-10-16T04:26:02;21.20;40.00
7341;DHT22;6870;50.944;6.932;2022-10-16T04:28:32;21.20;39.60
7341;DHT22;6870;50.944;6.932;2022-10-16T04:31:00;21.20;39.30
7341;DHT22;6870;50.944;6.932;2022-10-16T04:33:31;21.10;39.50
7341;DHT22;6870;50.944;6.932;2022-10-16T04:36:00;21.10;39.50
7341;DHT22;6870;50.944;6.932;2022-10-16T04:38:30;21.10;39.80
7341;DHT22;6870;50.944;6.932;2022-10-16T04:40:58;21.20;39.90
7341;DHT22;6870;50.944;6.932;2022-10-16T04:43:27;21.10;39.50
7341;DHT22;6870;50.944;6.932;2022-10-16T04:46:01;21.00;39.90
7341;DHT22;6870;50.944;6.932;2022-10-16T04:48:31;21.00;38.90
7341;DHT22;6870;50.944;6.932;2022-10-16T04:50:59;21.30;39.70
7341;DHT22;6870;50.944;6.932;2022-10-16T04:53:27;21.20;39.60
7341;DHT22;6870;50.944;6.932;2022-10-16T04:55:56;21.10;39.50
7341;DHT22;6870;50.944;6.932;2022-10-16T04:58:24;21.20;39.50
7341;DHT22;6870;50.944;6.932;2022-10-16T05:00:52;21.20;39.40
7341;DHT22;6870;50.944;6.932;2022-10-16T05:03:22;21.20;39.10
7341;DHT22;6870;50.944;6.932;2022-10-16T05:05:50;21.20;39.30
7341;DHT22;6870;50.944;6.932;2022-10-16T05:08:18;21.30;39.70
7341;DHT22;6870;50.944;6.932;2022-10-16T05:10:47;20.70;39.10
7341;DHT22;6870;50.944;6.932;2022-10-16T05:13:15;21.20;39.50
7341;DHT22;6870;50.944;6.932;2022-10-16T05:15:46;21.00;39.10
7341;DHT22;6870;50.944;6.932;2022-10-16T05:18:15;20.90;39.00
7341;DHT22;6870;50.944;6.932;2022-10-16T05:20:45;21.20;39.70
7341;DHT22;6870;50.944;6.932;2022-10-16T05:23:14;20.90;39.30
7341;DHT22;6870;50.944;6.932;2022-10-16T05:25:42;21.20;39.70
7341;DHT22;6870;50.944;6.932;2022-10-16T05:28:10;21.30;39.50
7341;DHT22;6870;50.944;6.932;2022-10-16T05:30:38;21.10;39.60
7341;DHT22;6870;50.944;6.932;2022-10-16T05:33:06;21.10;39.50
7341;DHT22;6870;50.944;6.932;2022-10-16T05:35:34;21.10;39.60
7341;DHT22;6870;50.944;6.932;2022-10-16T05:38:03;21.10;39.10
7341;DHT22;6870;50.944;6.932;2022-10-16T05:40:32;21.10;39.50
7341;DHT22;6870;50.944;6.932;2022-10-16T05:43:00;21.20;39.80
7341;DHT22;6870;50.944;6.932;2022-10-16T05:45:28;20.90;38.90
7341;DHT22;6870;50.944;6.932;2022-10-16T05:47:56;21.20;39.70
7341;DHT22;6870;50.944;6.932;2022-10-16T05:50:24;21.10;39.50
7341;DHT22;6870;50.944;6.932;2022-10-16T05:52:52;21.20;39.90
7341;DHT22;6870;50.944;6.932;2022-10-16T05:55:22;21.10;39.70
7341;DHT22;6870;50.944;6.932;2022-10-16T05:57:50;20.90;39.00
7341;DHT22;6870;50.944;6.932;2022-10-16T06:00:18;21.10;39.50
7341;DHT22;6870;50.944;6.932;2022-10-16T06:02:46;21.20;39.40
7341;DHT22;6870;50.944;6.932;2022-10-16T06:05:15;21.30;39.90
7341;DHT22;6870;50.944;6.932;2022-10-16T06:07:43;21.00;39.10
7341;DHT22;6870;50.944;6.932;2022-10-16T06:10:11;21.00;39.50
7341;DHT22;6870;50.944;6.932;2022-10-16T06:12:41;21.10;39.50
7341;DHT22;6870;50.944;6.932;2022-10-16T06:15:10;21.10;39.50
7341;DHT22;6870;50.944;6.932;2022-10-16T06:17:38;20.60;39.20
7341;DHT22;6870;50.944;6.932;2022-10-16T06:20:06;21.10;39.60
7341;DHT22;6870;50.944;6.932;2022-10-16T06:22:35;21.00;39.10
7341;DHT22;6870;50.944;6.932;2022-10-16T06:25:03;21.20;39.10
7341;DHT22;6870;50.944;6.932;2022-10-16T06:27:32;21.20;39.70
7341;DHT22;6870;50.944;6.932;2022-10-16T06:30:02;21.00;39.50
7341;DHT22;6870;50.944;6.932;2022-10-16T06:32:30;20.90;39.50
7341;DHT22;6870;50.944;6.932;2022-10-16T06:34:59;20.90;39.00
7341;DHT22;6870;50.944;6.932;2022-10-16T06:37:27;21.20;39.50
7341;DHT22;6870;50.944;6.932;2022-10-16T06:39:55;20.80;38.80
7341;DHT22;6870;50.944;6.932;2022-10-16T06:42:23;21.00;38.90
7341;DHT22;6870;50.944;6.932;2022-10-16T06:44:52;21.00;38.90
7341;DHT22;6870;50.944;6.932;2022-10-16T06:47:22;21.20;39.10
7341;DHT22;6870;50.944;6.932;2022-10-16T06:49:50;21.10;39.30
7341;DHT22;6870;50.944;6.932;2022-10-16T06:52:20;21.30;39.70
7341;DHT22;6870;50.944;6.932;2022-10-16T06:54:49;21.00;39.30
7341;DHT22;6870;50.944;6.932;2022-10-16T06:57:17;21.10;39.00
7341;DHT22;6870;50.944;6.932;2022-10-16T06:59:45;21.00;39.10
7341;DHT22;6870;50.944;6.932;2022-10-16T07:02:19;21.20;38.90
7341;DHT22;6870;50.944;6.932;2022-10-16T07:04:48;21.30;40.20
7341;DHT22;6870;50.944;6.932;2022-10-16T07:07:16;20.90;39.20
7341;DHT22;6870;50.944;6.932;2022-10-16T07:09:44;20.90;38.90
7341;DHT22;6870;50.944;6.932;2022-10-16T07:12:12;21.10;38.90
7341;DHT22;6870;50.944;6.932;2022-10-16T07:14:40;21.00;38.60
7341;DHT22;6870;50.944;6.932;2022-10-16T07:17:08;21.40;38.70
7341;DHT22;6870;50.944;6.932;2022-10-16T07:19:36;21.20;38.40
7341;DHT22;6870;50.944;6.932;2022-10-16T07:22:06;21.40;38.10
7341;DHT22;6870;50.944;6.932;2022-10-16T07:24:34;21.20;37.60
7341;DHT22;6870;50.944;6.932;2022-10-16T07:27:03;21.40;37.70
7341;DHT22;6870;50.944;6.932;2022-10-16T07:29:31;21.20;37.90
7341;DHT22;6870;50.944;6.932;2022-10-16T07:31:59;21.30;38.00
7341;DHT22;6870;50.944;6.932;2022-10-16T07:34:27;21.40;38.00
7341;DHT22;6870;50.944;6.932;2022-10-16T07:36:55;21.30;37.70
7341;DHT22;6870;50.944;6.932;2022-10-16T07:39:25;21.40;37.30
7341;DHT22;6870;50.944;6.932;2022-10-16T07:41:53;21.50;37.90
7341;DHT22;6870;50.944;6.932;2022-10-16T07:44:21;21.40;37.20
7341;DHT22;6870;50.944;6.932;2022-10-16T07:46:49;21.50;37.70
7341;DHT22;6870;50.944;6.932;2022-10-16T07:49:17;21.20;36.80
7341;DHT22;6870;50.944;6.932;2022-10-16T07:51:45;21.30;37.60
7341;DHT22;6870;50.944;6.932;2022-10-16T07:54:13;21.40;37.00
7341;DHT22;6870;50.944;6.932;2022-10-16T07:56:43;21.50;37.40
7341;DHT22;6870;50.944;6.932;2022-10-16T07:59:11;21.70;37.30
7341;DHT22;6870;50.944;6.932;2022-10-16T08:01:39;21.60;37.40
7341;DHT22;6870;50.944;6.932;2022-10-16T08:04:10;21.20;37.00
7341;DHT22;6870;50.944;6.932;2022-10-16T08:06:39;21.40;36.70
7341;DHT22;6870;50.944;6.932;2022-10-16T08:09:08;21.40;37.20
7341;DHT22;6870;50.944;6.932;2022-10-16T08:11:37;21.50;37.30
7341;DHT22;6870;50.944;6.932;2022-10-16T08:14:06;21.30;37.00
7341;DHT22;6870;50.944;6.932;2022-10-16T08:16:34;21.50;36.50
7341;DHT22;6870;50.944;6.932;2022-10-16T08:19:02;21.50;36.20
7341;DHT22;6870;50.944;6.932;2022-10-16T08:21:30;21.60;36.90
7341;DHT22;6870;50.944;6.932;2022-10-16T08:23:58;21.40;36.30
7341;DHT22;6870;50.944;6.932;2022-10-16T08:26:27;21.80;36.20
7341;DHT22;6870;50.944;6.932;2022-10-16T08:28:55;22.00;36.70
7341;DHT22;6870;50.944;6.932;2022-10-16T08:31:25;21.60;36.10
7341;DHT22;6870;50.944;6.932;2022-10-16T08:33:54;21.80;36.20
7341;DHT22;6870;50.944;6.932;2022-10-16T08:36:22;21.90;36.00
7341;DHT22;6870;50.944;6.932;2022-10-16T08:38:50;22.20;35.30
7341;DHT22;6870;50.944;6.932;2022-10-16T08:44:49;22.10;35.70
7341;DHT22;6870;50.944;6.932;2022-10-16T08:47:35;22.30;35.70
7341;DHT22;6870;50.944;6.932;2022-10-16T08:50:12;22.30;35.60
7341;DHT22;6870;50.944;6.932;2022-10-16T08:52:44;22.50;35.60
7341;DHT22;6870;50.944;6.932;2022-10-16T08:55:27;22.30;35.30
7341;DHT22;6870;50.944;6.932;2022-10-16T08:57:59;22.10;35.00
7341;DHT22;6870;50.944;6.932;2022-10-16T09:00:28;22.20;34.80
7341;DHT22;6870;50.944;6.932;2022-10-16T09:03:05;22.30;34.80
7341;DHT22;6870;50.944;6.932;2022-10-16T09:05:51;22.40;34.70
7341;DHT22;6870;50.944;6.932;2022-10-16T09:08:30;22.00;34.10
7341;DHT22;6870;50.944;6.932;2022-10-16T09:11:07;22.50;34.50
7341;DHT22;6870;50.944;6.932;2022-10-16T09:13:47;22.30;34.10
7341;DHT22;6870;50.944;6.932;2022-10-16T09:16:21;22.50;34.20
7341;DHT22;6870;50.944;6.932;2022-10-16T09:18:58;22.60;34.10
7341;DHT22;6870;50.944;6.932;2022-10-16T09:21:31;22.70;34.20
7341;DHT22;6870;50.944;6.932;2022-10-16T09:24:07;22.60;34.00
7341;DHT22;6870;50.944;6.932;2022-10-16T09:26:38;22.60;34.00
7341;DHT22;6870;50.944;6.932;2022-10-16T09:29:06;22.90;34.00
7341;DHT22;6870;50.944;6.932;2022-10-16T09:31:36;22.50;33.50
7341;DHT22;6870;50.944;6.932;2022-10-16T09:34:08;22.60;33.50
7341;DHT22;6870;50.944;6.932;2022-10-16T09:36:46;22.80;33.60
7341;DHT22;6870;50.944;6.932;2022-10-16T09:39:14;22.90;33.20
7341;DHT22;6870;50.944;6.932;2022-10-16T09:41:44;23.00;33.40
7341;DHT22;6870;50.944;6.932;2022-10-16T09:44:21;23.10;33.60
7341;DHT22;6870;50.944;6.932;2022-10-16T09:47:02;23.00;33.50
7341;DHT22;6870;50.944;6.932;2022-10-16T09:49:32;22.80;34.00
7341;DHT22;6870;50.944;6.932;2022-10-16T09:52:04;23.20;33.20
7341;DHT22;6870;50.944;6.932;2022-10-16T09:54:32;22.90;32.90
7341;DHT22;6870;50.944;6.932;2022-10-16T09:57:05;22.80;32.30
7341;DHT22;6870;50.944;6.932;2022-10-16T09:59:33;23.20;32.90
7341;DHT22;6870;50.944;6.932;2022-10-16T10:02:04;22.90;32.30
7341;DHT22;6870;50.944;6.932;2022-10-16T10:04:42;23.30;32.60
7341;DHT22;6870;50.944;6.932;2022-10-16T10:07:18;23.30;32.50
7341;DHT22;6870;50.944;6.932;2022-10-16T10:09:48;23.00;32.20
7341;DHT22;6870;50.944;6.932;2022-10-16T10:12:21;23.30;32.10
7341;DHT22;6870;50.944;6.932;2022-10-16T10:14:54;23.20;32.30
7341;DHT22;6870;50.944;6.932;2022-10-16T10:17:25;23.20;32.40
7341;DHT22;6870;50.944;6.932;2022-10-16T10:19:57;23.00;32.10
7341;DHT22;6870;50.944;6.932;2022-10-16T10:22:30;23.20;31.60
7341;DHT22;6870;50.944;6.932;2022-10-16T10:31:09;23.20;31.40
7341;DHT22;6870;50.944;6.932;2022-10-16T10:33:44;23.20;31.60
7341;DHT22;6870;50.944;6.932;2022-10-16T10:36:25;23.30;31.70
7341;DHT22;6870;50.944;6.932;2022-10-16T10:38:59;23.40;32.20
7341;DHT22;6870;50.944;6.932;2022-10-16T10:42:02;23.20;32.10
7341;DHT22;6870;50.944;6.932;2022-10-16T10:45:03;23.10;32.20
7341;DHT22;6870;50.944;6.932;2022-10-16T10:47:47;23.30;32.50
7341;DHT22;6870;50.944;6.932;2022-10-16T10:50:24;22.90;32.10
7341;DHT22;6870;50.944;6.932;2022-10-16T10:53:06;23.30;32.50
7341;DHT22;6870;50.944;6.932;2022-10-16T10:55:43;23.40;32.40
7341;DHT22;6870;50.944;6.932;2022-10-16T10:58:22;23.50;32.20
7341;DHT22;6870;50.944;6.932;2022-10-16T11:01:06;23.40;31.90
7341;DHT22;6870;50.944;6.932;2022-10-16T11:03:56;23.10;31.50
7341;DHT22;6870;50.944;6.932;2022-10-16T11:06:32;23.50;31.80
7341;DHT22;6870;50.944;6.932;2022-10-16T11:09:10;23.70;31.80
7341;DHT22;6870;50.944;6.932;2022-10-16T11:11:42;23.30;31.40
7341;DHT22;6870;50.944;6.932;2022-10-16T11:14:17;23.60;31.70
7341;DHT22;6870;50.944;6.932;2022-10-16T11:16:52;23.20;31.20
7341;DHT22;6870;50.944;6.932;2022-10-16T11:19:31;23.40;31.50
7341;DHT22;6870;50.944;6.932;2022-10-16T11:22:07;23.50;31.60
7341;DHT22;6870;50.944;6.932;2022-10-16T11:24:45;23.80;31.80
7341;DHT22;6870;50.944;6.932;2022-10-16T11:27:18;23.30;31.00
7341;DHT22;6870;50.944;6.932;2022-10-16T11:29:52;23.50;31.10
7341;DHT22;6870;50.944;6.932;2022-10-16T11:32:27;23.70;31.00
7341;DHT22;6870;50.944;6.932;2022-10-16T11:35:02;24.00;31.10
7341;DHT22;6870;50.944;6.932;2022-10-16T11:37:39;24.10;31.00
7341;DHT22;6870;50.944;6.932;2022-10-16T11:40:19;23.70;30.50
7341;DHT22;6870;50.944;6.932;2022-10-16T11:42:54;24.10;30.80
7341;DHT22;6870;50.944;6.932;2022-10-16T11:45:31;24.00;30.40
7341;DHT22;6870;50.944;6.932;2022-10-16T11:48:07;23.60;30.80
7341;DHT22;6870;50.944;6.932;2022-10-16T11:50:43;24.10;31.50
7341;DHT22;6870;50.944;6.932;2022-10-16T11:53:21;23.60;31.20
7341;DHT22;6870;50.944;6.932;2022-10-16T11:55:54;23.90;31.60
7341;DHT22;6870;50.944;6.932;2022-10-16T11:58:25;23.50;31.00
7341;DHT22;6870;50.944;6.932;2022-10-16T12:01:00;23.80;31.20
7341;DHT22;6870;50.944;6.932;2022-10-16T12:03:36;23.90;31.10
7341;DHT22;6870;50.944;6.932;2022-10-16T12:06:19;23.90;30.30
7341;DHT22;6870;50.944;6.932;2022-10-16T12:08:53;24.10;30.80
7341;DHT22;6870;50.944;6.932;2022-10-16T12:11:32;24.10;30.50
7341;DHT22;6870;50.944;6.932;2022-10-16T12:14:17;23.80;30.10
7341;DHT22;6870;50.944;6.932;2022-10-16T12:16:53;24.20;30.40
7341;DHT22;6870;50.944;6.932;2022-10-16T12:19:24;24.10;30.40
7341;DHT22;6870;50.944;6.932;2022-10-16T12:21:56;24.10;29.80
7341;DHT22;6870;50.944;6.932;2022-10-16T12:24:34;24.50;30.50
7341;DHT22;6870;50.944;6.932;2022-10-16T12:27:17;24.20;30.40
7341;DHT22;6870;50.944;6.932;2022-10-16T12:29:55;24.10;30.50
7341;DHT22;6870;50.944;6.932;2022-10-16T12:32:29;23.80;30.20
7341;DHT22;6870;50.944;6.932;2022-10-16T12:35:19;24.10;30.20
7341;DHT22;6870;50.944;6.932;2022-10-16T12:37:49;24.20;30.20
7341;DHT22;6870;50.944;6.932;2022-10-16T12:40:26;24.20;30.30
7341;DHT22;6870;50.944;6.932;2022-10-16T12:42:57;24.40;30.40
7341;DHT22;6870;50.944;6.932;2022-10-16T12:45:29;24.30;29.80
7341;DHT22;6870;50.944;6.932;2022-10-16T12:48:00;24.40;30.20
7341;DHT22;6870;50.944;6.932;2022-10-16T12:50:33;24.40;30.00
7341;DHT22;6870;50.944;6.932;2022-10-16T12:53:15;24.50;30.40
7341;DHT22;6870;50.944;6.932;2022-10-16T12:55:53;24.20;30.30
7341;DHT22;6870;50.944;6.932;2022-10-16T12:58:42;24.40;30.70
7341;DHT22;6870;50.944;6.932;2022-10-16T13:01:24;24.10;30.60
7341;DHT22;6870;50.944;6.932;2022-10-16T13:04:22;23.60;30.50
7341;DHT22;6870;50.944;6.932;2022-10-16T13:07:09;24.00;30.70
7341;DHT22;6870;50.944;6.932;2022-10-16T13:09:54;24.10;30.70
7341;DHT22;6870;50.944;6.932;2022-10-16T13:12:52;24.00;31.10
7341;DHT22;6870;50.944;6.932;2022-10-16T13:15:41;23.60;30.60
7341;DHT22;6870;50.944;6.932;2022-10-16T13:18:22;24.10;31.90
7341;DHT22;6870;50.944;6.932;2022-10-16T13:21:09;23.90;30.90
7341;DHT22;6870;50.944;6.932;2022-10-16T13:23:50;23.90;30.80
7341;DHT22;6870;50.944;6.932;2022-10-16T13:26:26;23.80;31.40
7341;DHT22;6870;50.944;6.932;2022-10-16T13:28:59;23.80;31.60
7341;DHT22;6870;50.944;6.932;2022-10-16T13:31:31;24.00;32.00
7341;DHT22;6870;50.944;6.932;2022-10-16T13:34:01;23.50;31.20
7341;DHT22;6870;50.944;6.932;2022-10-16T13:36:33;23.80;32.10
7341;DHT22;6870;50.944;6.932;2022-10-16T13:39:21;23.40;31.90
7341;DHT22;6870;50.944;6.932;2022-10-16T13:42:05;23.60;32.20
7341;DHT22;6870;50.944;6.932;2022-10-16T13:44:40;23.70;32.20
7341;DHT22;6870;50.944;6.932;2022-10-16T13:47:19;23.30;32.20
7341;DHT22;6870;50.944;6.932;2022-10-16T13:49:59;23.20;31.90
7341;DHT22;6870;50.944;6.932;2022-10-16T13:52:28;23.60;32.50
7341;DHT22;6870;50.944;6.932;2022-10-16T13:54:57;23.30;32.30
7341;DHT22;6870;50.944;6.932;2022-10-16T13:57:28;23.60;32.60
7341;DHT22;6870;50.944;6.932;2022-10-16T13:59:56;23.80;32.40
7341;DHT22;6870;50.944;6.932;2022-10-16T14:02:28;23.70;32.20
7341;DHT22;6870;50.944;6.932;2022-10-16T14:05:02;23.50;32.50
7341;DHT22;6870;50.944;6.932;2022-10-16T14:07:32;23.50;32.50
7341;DHT22;6870;50.944;6.932;2022-10-16T14:10:05;23.50;32.50
7341;DHT22;6870;50.944;6.932;2022-10-16T14:12:35;23.10;32.20
7341;DHT22;6870;50.944;6.932;2022-10-16T14:15:05;23.50;32.50
7341;DHT22;6870;50.944;6.932;2022-10-16T14:17:47;23.20;32.50
7341;DHT22;6870;50.944;6.932;2022-10-16T14:20:17;23.50;32.90
7341;DHT22;6870;50.944;6.932;2022-10-16T14:22:46;23.20;32.60
7341;DHT22;6870;50.944;6.932;2022-10-16T14:25:24;23.00;32.50
7341;DHT22;6870;50.944;6.932;2022-10-16T14:28:01;23.20;32.80
7341;DHT22;6870;50.944;6.932;2022-10-16T14:30:33;23.10;32.70
7341;DHT22;6870;50.944;6.932;2022-10-16T14:33:05;23.00;32.60
7341;DHT22;6870;50.944;6.932;2022-10-16T14:35:35;23.10;32.80
7341;DHT22;6870;50.944;6.932;2022-10-16T14:38:06;23.00;32.70
7341;DHT22;6870;50.944;6.932;2022-10-16T14:40:47;23.00;32.80
7341;DHT22;6870;50.944;6.932;2022-10-16T14:43:20;23.00;32.90
7341;DHT22;6870;50.944;6.932;2022-10-16T14:45:52;23.00;32.90
7341;DHT22;6870;50.944;6.932;2022-10-16T14:48:24;23.10;32.80
7341;DHT22;6870;50.944;6.932;2022-10-16T14:50:52;23.00;33.10
7341;DHT22;6870;50.944;6.932;2022-10-16T14:53:20;23.10;33.20
7341;DHT22;6870;50.944;6.932;2022-10-16T14:55:48;22.90;32.70
7341;DHT22;6870;50.944;6.932;2022-10-16T14:58:19;23.00;33.20
7341;DHT22;6870;50.944;6.932;2022-10-16T15:00:48;23.10;33.30
7341;DHT22;6870;50.944;6.932;2022-10-16T15:03:16;22.90;33.10
7341;DHT22;6870;50.944;6.932;2022-10-16T15:05:45;22.90;33.20
7341;DHT22;6870;50.944;6.932;2022-10-16T15:08:13;22.80;32.90
7341;DHT22;6870;50.944;6.932;2022-10-16T15:10:43;22.90;33.20
7341;DHT22;6870;50.944;6.932;2022-10-16T15:13:12;23.20;33.40
7341;DHT22;6870;50.944;6.932;2022-10-16T15:15:43;22.80;33.30
7341;DHT22;6870;50.944;6.932;2022-10-16T15:18:12;23.20;33.80
7341;DHT22;6870;50.944;6.932;2022-10-16T15:20:49;23.20;33.80
7341;DHT22;6870;50.944;6.932;2022-10-16T15:23:19;23.30;33.90
7341;DHT22;6870;50.944;6.932;2022-10-16T15:25:52;22.70;33.50
7341;DHT22;6870;50.944;6.932;2022-10-16T15:28:22;22.70;33.70
7341;DHT22;6870;50.944;6.932;2022-10-16T15:30:53;22.60;33.50
7341;DHT22;6870;50.944;6.932;2022-10-16T15:33:24;22.80;33.60
7341;DHT22;6870;50.944;6.932;2022-10-16T15:36:06;23.20;34.10
7341;DHT22;6870;50.944;6.932;2022-10-16T15:38:35;22.90;34.00
7341;DHT22;6870;50.944;6.932;2022-10-16T15:41:03;22.70;33.80
7341;DHT22;6870;50.944;6.932;2022-10-16T15:43:31;23.20;34.30
7341;DHT22;6870;50.944;6.932;2022-10-16T15:46:00;22.80;33.90
7341;DHT22;6870;50.944;6.932;2022-10-16T15:48:30;23.10;34.20
7341;DHT22;6870;50.944;6.932;2022-10-16T15:50:59;23.00;34.20
7341;DHT22;6870;50.944;6.932;2022-10-16T15:53:29;22.70;33.90
7341;DHT22;6870;50.944;6.932;2022-10-16T15:55:57;23.10;34.30
7341;DHT22;6870;50.944;6.932;2022-10-16T15:58:25;22.80;34.00
7341;DHT22;6870;50.944;6.932;2022-10-16T16:00:56;22.70;34.00
7341;DHT22;6870;50.944;6.932;2022-10-16T16:03:27;23.00;34.20
7341;DHT22;6870;50.944;6.932;2022-10-16T16:05:56;22.80;34.10
7341;DHT22;6870;50.944;6.932;2022-10-16T16:08:24;22.80;34.10
7341;DHT22;6870;50.944;6.932;2022-10-16T16:11:01;22.70;34.00
7341;DHT22;6870;50.944;6.932;2022-10-16T16:13:30;23.10;34.70
7341;DHT22;6870;50.944;6.932;2022-10-16T16:15:58;22.90;34.30
7341;DHT22;6870;50.944;6.932;2022-10-16T16:18:26;22.70;34.10
7341;DHT22;6870;50.944;6.932;2022-10-16T16:20:55;22.80;34.20
7341;DHT22;6870;50.944;6.932;2022-10-16T16:23:23;23.00;34.40
7341;DHT22;6870;50.944;6.932;2022-10-16T16:26:11;22.70;34.20
7341;DHT22;6870;50.944;6.932;2022-10-16T16:28:42;22.70;34.20
7341;DHT22;6870;50.944;6.932;2022-10-16T16:31:10;22.80;34.50
7341;DHT22;6870;50.944;6.932;2022-10-16T16:33:38;22.60;34.20
7341;DHT22;6870;50.944;6.932;2022-10-16T16:36:06;22.60;34.20
7341;DHT22;6870;50.944;6.932;2022-10-16T16:38:41;22.60;34.20
7341;DHT22;6870;50.944;6.932;2022-10-16T16:41:15;23.00;34.70
7341;DHT22;6870;50.944;6.932;2022-10-16T16:43:44;22.90;34.60